Time;durP1;ratioP1;P1;durP2;ratioP2;P2;SDS_P1;SDS_P2;PMS_P1;PMS_P2;Temp;Humidity;BMP_temperature;BMP_pressure;BME280_temperature;BME280_humidity;BME280_pressure;Samples;Min_cycle;Max_cycle;Signal;HPM_P1;HPM_P2
2024/01/26 00:02:25;;;;;;;;;;;5.60;99.90;;;;;;4921504;29;19942;-82
2024/01/26 00:04:54;;;;;;;;;;;7.90;99.90;;;;;;4919323;29;19928;-79
2024/01/26 00:07:22;;;;;;;;;;;5.80;99.90;;;;;;4902752;29;19927;-81
2024/01/26 00:09:52;;;;;;;;;;;5.60;99.90;;;;;;4910326;29;19934;-80
2024/01/26 00:12:21;;;;;;;;;;;5.50;99.90;;;;;;4919880;29;19971;-82
2024/01/26 00:14:49;;;;;;;;;;;3.80;99.90;;;;;;4908771;29;20014;-79
2024/01/26 00:17:17;;;;;;;;;;;5.50;99.90;;;;;;4905585;29;19938;-81
2024/01/26 00:19:45;;;;;;;;;;;3.00;99.90;;;;;;4908733;29;19995;-80
2024/01/26 00:22:13;;;;;;;;;;;5.40;99.90;;;;;;4909648;29;19999;-78
2024/01/26 00:24:42;;;;;;;;;;;5.20;99.90;;;;;;4902363;29;19994;-81
2024/01/26 00:27:11;;;;;;;;;;;3.40;99.90;;;;;;4924993;29;19927;-80
2024/01/26 00:29:40;;;;;;;;;;;5.80;99.90;;;;;;4902923;29;19942;-80
2024/01/26 00:32:09;;;;;;;;;;;5.60;99.90;;;;;;4906159;29;19997;-81
2024/01/26 00:34:37;;;;;;;;;;;2.70;99.90;;;;;;4905202;29;19935;-80
2024/01/26 00:37:05;;;;;;;;;;;5.70;99.90;;;;;;4907152;29;19966;-81
2024/01/26 00:39:34;;;;;;;;;;;5.20;99.90;;;;;;4907221;29;20058;-80
2024/01/26 00:42:02;;;;;;;;;;;5.40;99.90;;;;;;4922013;29;19951;-81
2024/01/26 00:44:32;;;;;;;;;;;3.30;99.90;;;;;;4907023;29;19927;-82
2024/01/26 00:47:00;;;;;;;;;;;3.50;99.90;;;;;;4921953;29;19994;-81
2024/01/26 00:49:28;;;;;;;;;;;5.00;99.90;;;;;;4923616;29;19991;-80
2024/01/26 00:52:08;;;;;;;;;;;4.80;99.90;;;;;;4924070;29;19928;-81
2024/01/26 00:54:37;;;;;;;;;;;5.20;99.90;;;;;;4922127;29;20009;-80
2024/01/26 00:57:06;;;;;;;;;;;4.80;99.90;;;;;;4925147;29;19958;-82
2024/01/26 00:59:37;;;;;;;;;;;4.40;99.90;;;;;;4923493;29;20375;-79
2024/01/26 01:02:06;;;;;;;;;;;4.80;99.90;;;;;;4907632;29;19927;-81
2024/01/26 01:04:35;;;;;;;;;;;5.00;99.90;;;;;;4912352;29;19937;-82
2024/01/26 01:07:04;;;;;;;;;;;4.80;99.90;;;;;;4910085;29;19952;-80
2024/01/26 01:09:34;;;;;;;;;;;4.80;99.90;;;;;;4911186;29;19934;-81
2024/01/26 01:12:02;;;;;;;;;;;5.00;99.90;;;;;;4908013;29;19951;-81
2024/01/26 01:14:31;;;;;;;;;;;6.40;99.90;;;;;;4927700;29;19937;-81
2024/01/26 01:17:01;;;;;;;;;;;2.40;99.90;;;;;;4925608;29;19952;-79
2024/01/26 01:19:29;;;;;;;;;;;4.90;99.90;;;;;;4906048;29;20041;-80
2024/01/26 01:21:57;;;;;;;;;;;4.70;99.90;;;;;;4910258;29;19959;-82
2024/01/26 01:24:25;;;;;;;;;;;4.80;99.90;;;;;;4925290;29;19928;-81
2024/01/26 01:26:53;;;;;;;;;;;5.20;99.90;;;;;;4906749;29;19927;-80
2024/01/26 01:29:22;;;;;;;;;;;3.30;99.90;;;;;;4907531;29;20003;-78
2024/01/26 01:31:50;;;;;;;;;;;4.80;99.90;;;;;;4924658;29;19928;-80
2024/01/26 01:34:20;;;;;;;;;;;2.40;99.90;;;;;;4909679;29;19942;-80
2024/01/26 01:36:49;;;;;;;;;;;4.80;99.90;;;;;;4910330;29;20382;-78
2024/01/26 01:39:17;;;;;;;;;;;4.80;99.90;;;;;;4910324;29;19924;-80
2024/01/26 01:41:47;;;;;;;;;;;4.60;99.90;;;;;;4908309;29;19938;-80
2024/01/26 01:44:15;;;;;;;;;;;4.60;99.90;;;;;;4926125;29;19935;-82
2024/01/26 01:46:43;;;;;;;;;;;4.60;99.90;;;;;;4908398;29;19928;-82
2024/01/26 01:49:11;;;;;;;;;;;4.50;99.90;;;;;;4910513;29;19943;-80
2024/01/26 01:51:44;;;;;;;;;;;4.50;99.90;;;;;;4906276;29;19934;-77
2024/01/26 01:54:12;;;;;;;;;;;4.40;99.90;;;;;;4909555;29;19979;-79
2024/01/26 01:56:42;;;;;;;;;;;4.50;99.90;;;;;;4897098;29;19928;-79
2024/01/26 01:59:10;;;;;;;;;;;4.40;99.90;;;;;;4899957;29;19928;-79
2024/01/26 02:01:38;;;;;;;;;;;3.60;99.90;;;;;;4898739;29;19928;-78
2024/01/26 02:04:07;;;;;;;;;;;4.40;99.90;;;;;;4896385;29;19990;-78
2024/01/26 02:06:35;;;;;;;;;;;4.40;99.90;;;;;;4895372;29;19928;-78
2024/01/26 02:09:05;;;;;;;;;;;4.40;99.90;;;;;;4896305;29;19934;-79
2024/01/26 02:11:34;;;;;;;;;;;4.40;99.90;;;;;;4915556;29;19958;-79
2024/01/26 02:14:02;;;;;;;;;;;4.30;99.90;;;;;;4916197;29;19927;-78
2024/01/26 02:16:30;;;;;;;;;;;4.30;99.90;;;;;;4899752;29;20373;-79
2024/01/26 02:18:58;;;;;;;;;;;4.30;99.90;;;;;;4918841;29;19932;-79
2024/01/26 02:21:27;;;;;;;;;;;4.30;99.90;;;;;;4915582;29;19931;-78
2024/01/26 02:23:56;;;;;;;;;;;4.20;99.90;;;;;;4914856;29;20400;-79
2024/01/26 02:26:24;;;;;;;;;;;4.20;99.90;;;;;;4899175;29;19935;-79
2024/01/26 02:28:53;;;;;;;;;;;4.20;99.90;;;;;;4914245;29;20328;-79
2024/01/26 02:31:21;;;;;;;;;;;4.20;99.90;;;;;;4899578;29;19927;-78
2024/01/26 02:33:49;;;;;;;;;;;4.20;99.90;;;;;;4902114;29;19927;-78
2024/01/26 02:36:17;;;;;;;;;;;4.10;99.90;;;;;;4900741;29;19931;-78
2024/01/26 02:38:46;;;;;;;;;;;4.10;99.90;;;;;;4899555;29;19962;-78
2024/01/26 02:41:16;;;;;;;;;;;4.10;99.90;;;;;;4916654;29;20012;-79
2024/01/26 02:43:44;;;;;;;;;;;4.10;99.90;;;;;;4900325;29;19928;-78
2024/01/26 02:46:13;;;;;;;;;;;4.10;99.90;;;;;;4913059;29;19928;-78
2024/01/26 02:48:41;;;;;;;;;;;4.10;99.90;;;;;;4912987;29;19927;-78
2024/01/26 02:51:09;;;;;;;;;;;4.10;99.90;;;;;;4899760;29;19931;-78
2024/01/26 02:53:39;;;;;;;;;;;4.00;99.90;;;;;;4901370;29;19938;-78
2024/01/26 02:56:07;;;;;;;;;;;4.00;99.90;;;;;;4900854;29;19928;-80
2024/01/26 02:58:37;;;;;;;;;;;4.00;99.90;;;;;;4915614;29;19995;-78
2024/01/26 03:01:06;;;;;;;;;;;4.00;99.90;;;;;;4901198;29;20360;-78
2024/01/26 03:03:34;;;;;;;;;;;4.00;99.90;;;;;;4900687;29;19932;-79
2024/01/26 03:06:05;;;;;;;;;;;4.00;99.90;;;;;;4916410;29;20347;-77
2024/01/26 03:08:34;;;;;;;;;;;4.10;99.90;;;;;;4918176;29;19943;-77
2024/01/26 03:11:02;;;;;;;;;;;4.10;99.90;;;;;;4903475;29;19952;-78
2024/01/26 03:13:30;;;;;;;;;;;4.10;99.90;;;;;;4902349;29;20386;-77
2024/01/26 03:16:00;;;;;;;;;;;3.80;99.90;;;;;;4900413;29;20410;-77
2024/01/26 03:18:28;;;;;;;;;;;4.10;99.90;;;;;;4902391;29;19928;-77
2024/01/26 03:20:56;;;;;;;;;;;4.10;99.90;;;;;;4898365;29;19935;-77
2024/01/26 03:23:24;;;;;;;;;;;4.10;99.90;;;;;;4899437;29;19933;-77
2024/01/26 03:25:53;;;;;;;;;;;4.10;99.90;;;;;;4895249;29;19955;-76
2024/01/26 03:28:21;;;;;;;;;;;4.10;99.90;;;;;;4915651;29;19928;-77
2024/01/26 03:30:49;;;;;;;;;;;4.10;99.90;;;;;;4897323;29;19928;-77
2024/01/26 03:33:19;;;;;;;;;;;4.10;99.90;;;;;;4913052;29;20339;-77
2024/01/26 03:35:47;;;;;;;;;;;4.10;99.90;;;;;;4916749;29;20018;-77
2024/01/26 03:38:16;;;;;;;;;;;4.00;99.90;;;;;;4895615;29;19931;-77
2024/01/26 03:40:45;;;;;;;;;;;4.00;99.90;;;;;;4898237;29;20540;-77
2024/01/26 03:43:13;;;;;;;;;;;4.00;99.90;;;;;;4910831;29;19935;-76
2024/01/26 03:45:41;;;;;;;;;;;4.00;99.90;;;;;;4900845;29;19927;-77
2024/01/26 03:48:09;;;;;;;;;;;4.00;99.90;;;;;;4914004;29;20344;-77
2024/01/26 03:50:39;;;;;;;;;;;4.00;99.90;;;;;;4900289;29;19931;-76
2024/01/26 03:53:07;;;;;;;;;;;4.00;99.90;;;;;;4896168;29;19947;-77
2024/01/26 03:55:36;;;;;;;;;;;4.00;99.90;;;;;;4901151;29;19978;-78
2024/01/26 03:58:04;;;;;;;;;;;4.00;99.90;;;;;;4901774;29;20011;-77
2024/01/26 04:00:34;;;;;;;;;;;4.00;99.90;;;;;;4897578;29;20010;-77
2024/01/26 04:03:02;;;;;;;;;;;4.00;99.90;;;;;;4900208;29;19927;-78
2024/01/26 04:05:30;;;;;;;;;;;4.00;99.90;;;;;;4895097;29;19928;-78
2024/01/26 04:08:00;;;;;;;;;;;4.00;99.90;;;;;;4913411;29;19962;-78
2024/01/26 04:10:28;;;;;;;;;;;4.10;99.90;;;;;;4914206;29;19934;-78
2024/01/26 04:12:56;;;;;;;;;;;4.00;99.90;;;;;;4900441;29;19935;-77
2024/01/26 04:15:25;;;;;;;;;;;4.00;99.90;;;;;;4915009;29;20066;-77
2024/01/26 04:17:53;;;;;;;;;;;4.10;99.90;;;;;;4901601;29;19938;-77
2024/01/26 04:20:22;;;;;;;;;;;4.00;99.90;;;;;;4912051;29;19955;-77
2024/01/26 04:22:50;;;;;;;;;;;3.90;99.90;;;;;;4899677;29;20387;-78
2024/01/26 04:25:19;;;;;;;;;;;3.90;99.90;;;;;;4898581;29;20426;-76
2024/01/26 04:27:48;;;;;;;;;;;3.90;99.90;;;;;;4915486;29;19935;-76
2024/01/26 04:30:16;;;;;;;;;;;3.90;99.90;;;;;;4899489;29;20402;-77
2024/01/26 04:32:44;;;;;;;;;;;3.90;99.90;;;;;;4896530;29;19927;-76
2024/01/26 04:35:14;;;;;;;;;;;3.90;99.90;;;;;;4912973;29;19927;-77
2024/01/26 04:37:42;;;;;;;;;;;3.80;99.90;;;;;;4915648;29;19932;-77
2024/01/26 04:40:12;;;;;;;;;;;3.90;99.90;;;;;;4911584;29;20359;-76
2024/01/26 04:42:42;;;;;;;;;;;3.80;99.90;;;;;;4912862;29;19984;-78
2024/01/26 04:45:10;;;;;;;;;;;3.90;99.90;;;;;;4900595;29;19927;-78
2024/01/26 04:47:38;;;;;;;;;;;3.80;99.90;;;;;;4911849;29;19938;-78
2024/01/26 04:50:07;;;;;;;;;;;3.80;99.90;;;;;;4917158;29;19933;-78
2024/01/26 04:52:35;;;;;;;;;;;3.80;99.90;;;;;;4905717;29;19927;-77
2024/01/26 04:55:07;;;;;;;;;;;3.80;99.90;;;;;;4916462;29;19931;-78
2024/01/26 04:57:35;;;;;;;;;;;3.80;99.90;;;;;;4903184;29;19927;-77
2024/01/26 05:00:06;;;;;;;;;;;3.80;99.90;;;;;;4896835;29;19963;-76
2024/01/26 05:02:34;;;;;;;;;;;3.80;99.90;;;;;;4899070;29;19931;-76
2024/01/26 05:05:03;;;;;;;;;;;3.90;99.90;;;;;;4914502;29;19927;-76
2024/01/26 05:07:31;;;;;;;;;;;3.90;99.90;;;;;;4898798;29;19935;-77
2024/01/26 05:09:59;;;;;;;;;;;3.90;99.90;;;;;;4903935;29;20407;-77
2024/01/26 05:12:27;;;;;;;;;;;3.90;99.90;;;;;;4914434;29;19928;-76
2024/01/26 05:14:56;;;;;;;;;;;3.90;99.90;;;;;;4894325;29;19974;-76
2024/01/26 05:17:25;;;;;;;;;;;3.90;99.90;;;;;;4895847;29;19954;-77
2024/01/26 05:19:54;;;;;;;;;;;3.80;99.90;;;;;;4891661;29;19927;-76
2024/01/26 05:22:22;;;;;;;;;;;3.80;99.90;;;;;;4893954;29;19927;-76
2024/01/26 05:24:50;;;;;;;;;;;3.70;99.90;;;;;;4892009;29;19934;-76
2024/01/26 05:27:18;;;;;;;;;;;3.60;99.90;;;;;;4893324;29;20382;-76
2024/01/26 05:29:47;;;;;;;;;;;3.70;99.90;;;;;;4909639;29;19927;-76
2024/01/26 05:32:15;;;;;;;;;;;3.70;99.90;;;;;;4893154;29;19932;-76
2024/01/26 05:34:44;;;;;;;;;;;3.60;99.90;;;;;;4892782;29;19927;-76
2024/01/26 05:37:13;;;;;;;;;;;3.60;99.90;;;;;;4891224;29;19931;-76
2024/01/26 05:39:41;;;;;;;;;;;3.60;99.90;;;;;;4894066;29;19934;-77
2024/01/26 05:42:10;;;;;;;;;;;3.60;99.90;;;;;;4894118;29;19978;-76
2024/01/26 05:44:38;;;;;;;;;;;3.60;99.90;;;;;;4913427;29;19927;-77
2024/01/26 05:47:06;;;;;;;;;;;3.60;99.90;;;;;;4912363;29;20031;-76
2024/01/26 05:49:34;;;;;;;;;;;3.60;99.90;;;;;;4914644;29;19928;-76
2024/01/26 05:52:04;;;;;;;;;;;3.70;99.90;;;;;;4912023;29;20463;-77
2024/01/26 05:54:33;;;;;;;;;;;3.70;99.90;;;;;;4895785;29;19927;-77
2024/01/26 05:57:01;;;;;;;;;;;3.60;99.90;;;;;;4920453;29;19980;-77
2024/01/26 05:59:29;;;;;;;;;;;3.80;99.90;;;;;;4912163;29;19935;-76
2024/01/26 06:01:58;;;;;;;;;;;2.20;99.90;;;;;;4915337;29;19948;-77
2024/01/26 06:04:26;;;;;;;;;;;3.60;99.90;;;;;;4915194;29;20429;-76
2024/01/26 06:06:54;;;;;;;;;;;3.60;99.90;;;;;;4911546;29;20322;-76
2024/01/26 06:09:25;;;;;;;;;;;3.70;99.90;;;;;;4897155;29;19928;-76
2024/01/26 06:11:53;;;;;;;;;;;3.60;99.90;;;;;;4895516;29;19957;-78
2024/01/26 06:14:21;;;;;;;;;;;3.50;99.90;;;;;;4899215;29;19928;-78
2024/01/26 06:16:50;;;;;;;;;;;3.50;99.90;;;;;;4902500;29;19931;-78
2024/01/26 06:19:19;;;;;;;;;;;3.60;99.90;;;;;;4919467;29;19978;-78
2024/01/26 06:21:47;;;;;;;;;;;3.70;99.90;;;;;;4902528;29;20415;-78
2024/01/26 06:24:16;;;;;;;;;;;3.80;99.90;;;;;;4902491;29;19928;-79
2024/01/26 06:26:45;;;;;;;;;;;3.80;99.90;;;;;;4911417;29;19931;-80
2024/01/26 06:29:14;;;;;;;;;;;4.00;99.90;;;;;;4901860;29;19928;-77
2024/01/26 06:31:42;;;;;;;;;;;3.90;99.90;;;;;;4925552;29;20306;-78
2024/01/26 06:34:10;;;;;;;;;;;4.00;99.90;;;;;;4909515;29;19997;-80
2024/01/26 06:36:39;;;;;;;;;;;4.00;99.90;;;;;;4915733;29;19916;-81
2024/01/26 06:39:08;;;;;;;;;;;4.20;99.90;;;;;;4912988;29;19928;-78
2024/01/26 06:41:41;;;;;;;;;;;3.20;99.90;;;;;;4918877;29;20249;-79
2024/01/26 06:44:13;;;;;;;;;;;4.10;99.90;;;;;;4920973;29;19932;-80
2024/01/26 06:46:42;;;;;;;;;;;4.30;99.90;;;;;;4924758;29;19924;-77
2024/01/26 06:49:10;;;;;;;;;;;4.40;99.90;;;;;;4922266;29;20045;-78
2024/01/26 06:51:39;;;;;;;;;;;4.10;99.90;;;;;;4923005;29;19927;-82
2024/01/26 06:54:07;;;;;;;;;;;3.70;99.90;;;;;;4912340;29;20545;-79
2024/01/26 06:56:36;;;;;;;;;;;4.50;99.90;;;;;;4904544;29;20328;-78
2024/01/26 06:59:04;;;;;;;;;;;4.20;99.90;;;;;;4919341;29;19928;-78
2024/01/26 07:01:34;;;;;;;;;;;2.00;99.90;;;;;;4895395;29;20325;-78
2024/01/26 07:04:02;;;;;;;;;;;4.40;99.90;;;;;;4914192;29;20703;-78
2024/01/26 07:06:31;;;;;;;;;;;3.40;99.90;;;;;;4919384;29;19932;-78
2024/01/26 07:08:59;;;;;;;;;;;4.40;99.90;;;;;;4921682;29;19932;-79
2024/01/26 07:11:28;;;;;;;;;;;4.60;99.90;;;;;;4915598;29;19912;-78
2024/01/26 07:13:56;;;;;;;;;;;4.20;99.90;;;;;;4927528;29;20450;-80
2024/01/26 07:16:24;;;;;;;;;;;4.60;99.90;;;;;;4907897;29;20288;-78
2024/01/26 07:18:54;;;;;;;;;;;4.50;99.90;;;;;;4908709;29;19924;-79
2024/01/26 07:21:25;;;;;;;;;;;4.60;99.90;;;;;;4920208;29;19934;-78
2024/01/26 07:23:53;;;;;;;;;;;4.30;99.90;;;;;;4912123;29;20496;-78
2024/01/26 07:26:22;;;;;;;;;;;4.90;99.90;;;;;;4910161;29;19951;-78
2024/01/26 07:28:51;;;;;;;;;;;4.10;99.90;;;;;;4912256;29;19952;-78
2024/01/26 07:31:19;;;;;;;;;;;4.90;99.90;;;;;;4928230;29;19938;-79
2024/01/26 07:33:47;;;;;;;;;;;3.00;99.90;;;;;;4918335;29;19932;-78
2024/01/26 07:36:18;;;;;;;;;;;5.00;99.90;;;;;;4912802;29;19928;-81
2024/01/26 07:38:46;;;;;;;;;;;5.20;99.90;;;;;;4910122;29;19916;-83
2024/01/26 07:41:15;;;;;;;;;;;5.10;99.90;;;;;;4907139;29;19927;-79
2024/01/26 07:43:43;;;;;;;;;;;4.90;99.90;;;;;;4911551;29;19938;-82
2024/01/26 07:46:11;;;;;;;;;;;5.30;99.90;;;;;;4924253;29;19932;-78
2024/01/26 07:48:40;;;;;;;;;;;5.90;99.90;;;;;;4908934;29;19931;-79
2024/01/26 07:51:09;;;;;;;;;;;5.50;99.90;;;;;;4907284;29;19923;-81
2024/01/26 07:53:38;;;;;;;;;;;3.80;99.90;;;;;;4907410;29;20409;-78
2024/01/26 07:56:07;;;;;;;;;;;6.10;99.90;;;;;;4911917;29;19928;-78
2024/01/26 07:58:35;;;;;;;;;;;5.50;99.90;;;;;;4904832;29;19927;-79
2024/01/26 08:01:04;;;;;;;;;;;5.60;99.90;;;;;;4903318;29;19943;-80
2024/01/26 08:03:33;;;;;;;;;;;5.60;99.90;;;;;;4901893;29;19931;-81
2024/01/26 08:06:02;;;;;;;;;;;5.30;99.90;;;;;;4902139;29;19927;-79
2024/01/26 08:08:30;;;;;;;;;;;5.70;99.90;;;;;;4921779;29;19932;-79
2024/01/26 08:11:01;;;;;;;;;;;5.70;99.90;;;;;;4920632;29;19927;-80
2024/01/26 08:13:29;;;;;;;;;;;5.80;99.90;;;;;;4915915;29;19966;-79
2024/01/26 08:15:58;;;;;;;;;;;5.80;99.90;;;;;;4915482;29;19928;-81
2024/01/26 08:18:26;;;;;;;;;;;6.10;99.90;;;;;;4918380;29;19938;-79
2024/01/26 08:20:55;;;;;;;;;;;6.00;99.90;;;;;;4905155;29;19928;-78
2024/01/26 08:23:23;;;;;;;;;;;6.20;99.90;;;;;;4922487;29;19971;-79
2024/01/26 08:25:52;;;;;;;;;;;6.20;99.90;;;;;;4915401;29;19973;-80
2024/01/26 08:28:21;;;;;;;;;;;8.50;99.90;;;;;;4902573;29;19931;-79
2024/01/26 08:30:50;;;;;;;;;;;6.10;99.90;;;;;;4915638;29;19935;-79
2024/01/26 08:33:18;;;;;;;;;;;6.30;99.90;;;;;;4913271;29;19935;-78
2024/01/26 08:35:47;;;;;;;;;;;6.20;99.90;;;;;;4917038;29;19936;-79
2024/01/26 08:38:15;;;;;;;;;;;6.20;99.90;;;;;;4918369;29;19931;-79
2024/01/26 08:40:43;;;;;;;;;;;6.30;99.90;;;;;;4906890;29;19928;-79
2024/01/26 08:43:13;;;;;;;;;;;4.80;99.90;;;;;;4907319;29;20250;-78
2024/01/26 08:45:43;;;;;;;;;;;6.90;99.90;;;;;;4919413;29;19927;-80
2024/01/26 08:48:13;;;;;;;;;;;6.40;99.90;;;;;;4904534;29;19932;-78
2024/01/26 08:50:43;;;;;;;;;;;6.40;99.90;;;;;;4904583;29;19927;-79
2024/01/26 08:53:11;;;;;;;;;;;6.60;99.90;;;;;;4908952;29;19935;-80
2024/01/26 08:55:40;;;;;;;;;;;6.80;99.90;;;;;;4906912;29;19911;-80
2024/01/26 08:58:08;;;;;;;;;;;6.60;99.90;;;;;;4918755;29;19959;-78
2024/01/26 09:00:37;;;;;;;;;;;6.90;99.90;;;;;;4921575;29;19956;-81
2024/01/26 09:03:07;;;;;;;;;;;6.80;99.90;;;;;;4901808;29;19962;-79
2024/01/26 09:05:35;;;;;;;;;;;7.40;99.90;;;;;;4922567;29;19966;-79
2024/01/26 09:08:04;;;;;;;;;;;6.80;99.90;;;;;;4920796;29;19927;-81
2024/01/26 09:10:33;;;;;;;;;;;7.00;99.90;;;;;;4917526;29;20319;-79
2024/01/26 09:13:01;;;;;;;;;;;7.00;99.90;;;;;;4919808;29;19939;-80
2024/01/26 09:15:29;;;;;;;;;;;7.00;99.90;;;;;;4900791;29;19927;-81
2024/01/26 09:18:01;;;;;;;;;;;7.10;99.90;;;;;;4902278;29;19928;-82
2024/01/26 09:20:31;;;;;;;;;;;7.30;99.90;;;;;;4923783;29;20418;-83
2024/01/26 09:23:00;;;;;;;;;;;7.00;99.90;;;;;;4923001;29;19991;-82
2024/01/26 09:25:28;;;;;;;;;;;7.10;99.90;;;;;;4908243;29;19932;-79
2024/01/26 09:27:57;;;;;;;;;;;7.10;99.80;;;;;;4907893;29;20026;-83
2024/01/26 09:30:25;;;;;;;;;;;7.50;99.90;;;;;;4923089;29;19932;-80
2024/01/26 09:32:53;;;;;;;;;;;7.20;99.90;;;;;;4920761;29;20035;-79
2024/01/26 09:35:22;;;;;;;;;;;7.20;99.60;;;;;;4926631;29;19931;-80
2024/01/26 09:37:51;;;;;;;;;;;7.20;99.50;;;;;;4906499;29;19960;-83
2024/01/26 09:40:20;;;;;;;;;;;7.30;99.40;;;;;;4903816;29;19927;-83
2024/01/26 09:42:49;;;;;;;;;;;7.30;99.90;;;;;;4907067;29;19935;-84
2024/01/26 09:45:19;;;;;;;;;;;7.50;99.90;;;;;;4922011;29;19934;-82
2024/01/26 09:47:50;;;;;;;;;;;7.30;98.70;;;;;;4919653;29;19938;-78
2024/01/26 09:50:21;;;;;;;;;;;7.40;98.50;;;;;;4904468;29;19928;-84
2024/01/26 09:52:50;;;;;;;;;;;7.50;98.20;;;;;;4919899;29;20375;-82
2024/01/26 09:55:20;;;;;;;;;;;7.50;98.30;;;;;;4916838;29;20018;-84
2024/01/26 09:57:49;;;;;;;;;;;7.60;98.60;;;;;;4921245;29;20336;-86
2024/01/26 10:00:17;;;;;;;;;;;7.80;98.50;;;;;;4924416;29;19942;-83
2024/01/26 10:02:46;;;;;;;;;;;7.60;98.30;;;;;;4903669;29;19961;-77
2024/01/26 10:05:16;;;;;;;;;;;7.60;98.00;;;;;;4919921;29;19962;-79
2024/01/26 10:07:45;;;;;;;;;;;7.60;97.40;;;;;;4906109;29;19983;-81
2024/01/26 10:10:14;;;;;;;;;;;7.60;97.50;;;;;;4902264;29;19932;-81
2024/01/26 10:12:45;;;;;;;;;;;7.20;97.70;;;;;;4919646;29;19947;-77
2024/01/26 10:15:15;;;;;;;;;;;7.70;97.10;;;;;;4902612;29;20415;-81
2024/01/26 10:17:53;;;;;;;;;;;6.20;97.00;;;;;;4899877;29;19932;-82
2024/01/26 10:20:22;;;;;;;;;;;7.80;97.10;;;;;;4895701;29;20087;-81
2024/01/26 10:22:50;;;;;;;;;;;7.80;96.70;;;;;;4904870;29;19928;-78
2024/01/26 10:25:18;;;;;;;;;;;7.70;96.50;;;;;;4895538;29;19928;-80
2024/01/26 10:27:48;;;;;;;;;;;7.80;96.80;;;;;;4897868;29;19928;-79
2024/01/26 10:30:19;;;;;;;;;;;7.80;96.90;;;;;;4898114;29;19955;-78
2024/01/26 10:32:48;;;;;;;;;;;7.80;96.70;;;;;;4898504;29;19931;-78
2024/01/26 10:35:18;;;;;;;;;;;7.80;96.40;;;;;;4895811;29;20417;-77
2024/01/26 10:37:47;;;;;;;;;;;7.80;96.70;;;;;;4881013;29;19928;-77
2024/01/26 10:40:16;;;;;;;;;;;7.80;96.30;;;;;;4880106;29;20343;-79
2024/01/26 10:42:46;;;;;;;;;;;7.90;96.70;;;;;;4893206;29;20367;-79
2024/01/26 10:45:19;;;;;;;;;;;8.00;96.40;;;;;;4881763;29;19931;-76
2024/01/26 10:47:50;;;;;;;;;;;7.90;95.60;;;;;;4890641;29;19935;-78
2024/01/26 10:50:20;;;;;;;;;;;7.90;95.90;;;;;;4918026;29;19927;-79
2024/01/26 10:52:50;;;;;;;;;;;8.00;96.00;;;;;;4898551;29;19927;-78
2024/01/26 10:55:19;;;;;;;;;;;8.10;95.70;;;;;;4895239;29;20009;-78
2024/01/26 10:57:47;;;;;;;;;;;8.00;95.20;;;;;;4897972;29;20387;-77
2024/01/26 11:00:20;;;;;;;;;;;8.00;95.50;;;;;;4915316;29;19951;-77
2024/01/26 11:02:49;;;;;;;;;;;8.10;95.50;;;;;;4887775;29;20300;-78
2024/01/26 11:05:18;;;;;;;;;;;8.20;95.00;;;;;;4907759;29;19966;-78
2024/01/26 11:07:47;;;;;;;;;;;8.20;94.80;;;;;;4898569;29;19939;-78
2024/01/26 11:10:18;;;;;;;;;;;8.10;94.50;;;;;;4902756;29;19935;-78
2024/01/26 11:12:46;;;;;;;;;;;8.10;94.70;;;;;;4889906;29;19967;-77
2024/01/26 11:15:14;;;;;;;;;;;8.10;94.80;;;;;;4900688;29;19940;-78
2024/01/26 11:17:57;;;;;;;;;;;8.20;94.60;;;;;;4906105;29;19983;-78
2024/01/26 11:20:28;;;;;;;;;;;8.20;94.50;;;;;;4913769;29;20418;-79
2024/01/26 11:23:00;;;;;;;;;;;8.30;94.70;;;;;;4911774;29;19987;-78
2024/01/26 11:25:33;;;;;;;;;;;8.20;94.10;;;;;;4912569;29;19975;-77
2024/01/26 11:28:02;;;;;;;;;;;8.30;94.10;;;;;;4908738;29;20429;-77
2024/01/26 11:30:31;;;;;;;;;;;8.30;93.70;;;;;;4895787;29;19934;-77
2024/01/26 11:33:01;;;;;;;;;;;8.30;93.60;;;;;;4892165;29;19991;-78
2024/01/26 11:35:29;;;;;;;;;;;8.30;93.40;;;;;;4912800;29;19932;-78
2024/01/26 11:39:29;;;;;;;3.38;0.70;;;10.40;93.80;;;;;;5085459;27;20410;-78
2024/01/26 11:41:59;;;;;;;3.97;0.80;;;8.40;93.40;;;;;;5085614;28;20044;-80
2024/01/26 11:44:30;;;;;;;1.30;0.30;;;8.40;93.60;;;;;;5121983;27;20079;-80
2024/01/26 11:46:59;;;;;;;5.53;1.80;;;8.40;92.70;;;;;;5122946;28;20070;-79
2024/01/26 11:49:29;;;;;;;3.35;0.70;;;8.40;92.50;;;;;;5090511;28;20044;-79
2024/01/26 11:51:57;;;;;;;4.05;0.75;;;8.50;92.80;;;;;;5088532;28;20524;-79
2024/01/26 11:54:26;;;;;;;4.32;0.65;;;8.50;92.90;;;;;;5097019;28;20072;-78
2024/01/26 11:56:56;;;;;;;4.55;0.65;;;8.50;93.40;;;;;;5093939;28;20041;-79
2024/01/26 11:59:25;;;;;;;4.88;0.55;;;8.50;93.80;;;;;;5089210;28;20045;-78
2024/01/26 12:01:54;;;;;;;4.55;0.90;;;8.50;93.80;;;;;;5099396;28;20056;-80
2024/01/26 12:04:23;;;;;;;6.10;1.05;;;8.50;93.70;;;;;;5104104;28;20512;-81
2024/01/26 12:06:53;;;;;;;7.22;0.70;;;8.50;94.50;;;;;;5082783;28;20040;-81
2024/01/26 12:09:22;;;;;;;3.97;0.63;;;8.50;93.70;;;;;;5096905;28;20049;-78
2024/01/26 12:11:52;;;;;;;3.63;1.33;;;8.50;93.50;;;;;;5087758;28;20083;-79
2024/01/26 12:14:22;;;;;;;3.53;0.65;;;8.50;93.80;;;;;;5085432;28;20044;-81
2024/01/26 12:16:51;;;;;;;4.28;0.50;;;8.50;93.80;;;;;;5081622;28;20067;-80
2024/01/26 12:19:22;;;;;;;4.75;0.63;;;8.50;93.90;;;;;;5090577;28;20063;-78
2024/01/26 12:21:51;;;;;;;7.78;0.57;;;8.50;94.00;;;;;;5091544;28;20858;-80
2024/01/26 12:24:22;;;;;;;4.53;0.85;;;8.50;93.80;;;;;;5083625;28;20070;-80
2024/01/26 12:26:52;;;;;;;5.93;0.95;;;8.40;93.50;;;;;;5098273;28;20063;-77
2024/01/26 12:29:23;;;;;;;3.63;0.50;;;8.40;92.90;;;;;;5110167;27;20068;-80
2024/01/26 12:31:52;;;;;;;5.57;1.23;;;8.40;93.10;;;;;;5088345;28;20044;-77
2024/01/26 12:34:21;;;;;;;4.45;0.63;;;8.40;93.10;;;;;;5124250;27;20505;-77
2024/01/26 12:36:51;;;;;;;3.63;0.50;;;8.40;93.00;;;;;;5103479;28;20047;-77
2024/01/26 12:39:20;;;;;;;3.20;0.55;;;8.40;92.90;;;;;;5125011;27;20063;-78
2024/01/26 12:41:50;;;;;;;2.75;0.50;;;8.30;92.40;;;;;;5118912;27;20071;-80
2024/01/26 12:44:18;;;;;;;4.32;0.70;;;8.30;93.10;;;;;;5109991;27;20070;-77
2024/01/26 12:46:49;;;;;;;3.80;0.80;;;8.30;92.70;;;;;;5099843;28;20047;-79
2024/01/26 12:49:17;;;;;;;2.22;0.40;;;8.30;93.30;;;;;;5108764;27;20048;-80
2024/01/26 12:51:46;;;;;;;2.45;0.43;;;8.30;93.40;;;;;;5094005;28;20144;-80
2024/01/26 12:54:15;;;;;;;2.60;0.60;;;8.10;94.10;;;;;;5096557;28;20622;-78
2024/01/26 12:56:52;;;;;;;5.03;0.40;;;8.30;93.00;;;;;;5068920;28;20088;-78
2024/01/26 12:59:23;;;;;;;1.92;0.95;;;8.30;92.40;;;;;;5037103;28;20126;-80
2024/01/26 13:01:53;;;;;;;4.35;0.55;;;9.30;92.70;;;;;;5053469;28;20053;-77
2024/01/26 13:04:21;;;;;;;5.95;0.80;;;8.20;92.70;;;;;;5055633;28;20145;-80
2024/01/26 13:06:50;;;;;;;2.55;0.50;;;8.20;93.40;;;;;;5049596;28;20329;-81
2024/01/26 13:09:20;;;;;;;5.03;0.55;;;8.20;93.40;;;;;;5064013;28;20045;-78
2024/01/26 13:11:49;;;;;;;4.47;0.50;;;8.20;93.50;;;;;;5049406;28;20791;-80
2024/01/26 13:14:17;;;;;;;3.75;0.45;;;8.20;93.30;;;;;;5043909;28;20051;-80
2024/01/26 13:16:46;;;;;;;5.22;0.65;;;8.20;93.10;;;;;;5049459;28;20131;-79
2024/01/26 13:19:15;;;;;;;4.40;0.57;;;8.10;93.00;;;;;;5029045;28;20049;-80
2024/01/26 13:21:46;;;;;;;3.28;0.55;;;8.20;92.80;;;;;;5028076;28;20049;-79
2024/01/26 13:24:14;;;;;;;4.50;0.60;;;8.10;92.70;;;;;;5047492;28;20044;-79
2024/01/26 13:26:45;;;;;;;6.22;0.73;;;8.10;92.70;;;;;;5032005;28;20041;-80
2024/01/26 13:29:14;;;;;;;4.18;0.50;;;8.10;93.40;;;;;;5061184;28;20446;-78
2024/01/26 13:31:42;;;;;;;3.17;0.30;;;8.10;93.00;;;;;;5066924;28;20064;-80
2024/01/26 13:34:11;;;;;;;5.72;0.60;;;8.10;93.60;;;;;;5082188;28;20107;-79
2024/01/26 13:36:42;;;;;;;4.00;0.40;;;8.10;93.30;;;;;;5065778;28;20095;-78
2024/01/26 13:39:11;;;;;;;4.78;0.63;;;8.10;93.20;;;;;;5080709;28;20044;-79
2024/01/26 13:41:39;;;;;;;4.30;0.40;;;8.10;93.30;;;;;;5073398;28;20037;-79
2024/01/26 13:44:08;;;;;;;3.40;0.50;;;8.10;92.90;;;;;;5068906;28;20051;-79
2024/01/26 13:46:37;;;;;;;8.82;2.38;;;8.00;93.30;;;;;;5059436;28;20131;-78
2024/01/26 13:49:05;;;;;;;6.47;1.40;;;8.00;93.10;;;;;;5058587;28;20091;-79
2024/01/26 13:51:34;;;;;;;6.15;1.30;;;8.00;93.00;;;;;;5082018;28;20507;-77
2024/01/26 13:54:17;;;;;;;3.47;0.63;;;7.90;93.30;;;;;;5066602;28;20496;-80
2024/01/26 13:56:51;;;;;;;19.27;3.90;;;7.90;92.40;;;;;;5086961;28;20072;-81
2024/01/26 13:59:20;;;;;;;5.10;0.60;;;7.90;92.40;;;;;;5074382;28;20094;-80
2024/01/26 14:01:50;;;;;;;2.50;0.70;;;7.80;92.70;;;;;;5071940;28;20047;-78
2024/01/26 14:04:20;;;;;;;4.53;0.43;;;7.70;92.80;;;;;;5072002;28;20563;-80
2024/01/26 14:06:49;;;;;;;3.92;1.00;;;7.80;92.20;;;;;;5083662;28;20068;-78
2024/01/26 14:09:19;;;;;;;4.35;0.63;;;7.80;92.10;;;;;;5087512;28;20048;-80
2024/01/26 14:11:48;;;;;;;2.83;0.70;;;7.70;92.60;;;;;;5068467;28;20071;-78
2024/01/26 14:14:22;;;;;;;9.45;3.25;;;7.70;92.40;;;;;;5073732;28;20051;-77
2024/01/26 14:16:53;;;;;;;10.80;5.28;;;7.70;92.20;;;;;;5069312;28;20051;-78
2024/01/26 14:19:22;;;;;;;9.77;2.10;;;7.70;92.10;;;;;;5066008;28;20477;-79
2024/01/26 14:21:52;;;;;;;6.95;2.33;;;7.70;91.90;;;;;;5084083;28;20045;-80
2024/01/26 14:24:22;;;;;;;6.53;1.73;;;7.70;91.40;;;;;;5050557;28;20503;-79